Data for 09/17/2014

Time Sea-Level Adjusted Pressure Absolute Pressure Temperature Relative Humidity Dew Point Precipitation   
(mb) (inHg) (mb) (inHg) (C) (F) (%) (C) (F) (mm) (in)
00:05 1020 30.12 849 25.07 14.6 58.2 56 5.9 42.6 0 0
00:10 1020 30.12 849 25.07 13.2 55.7 66 6.9 44.4 0 0
00:15 1020 30.12 849 25.07 11.3 52.4 72 6.5 43.6 0 0
00:20 1020 30.12 849 25.07 10.7 51.2 73 6.1 42.9 0 0
00:25 1020 30.12 849 25.07 10.9 51.6 73 6.2 43.2 0 0
00:30 1020 30.12 849 25.07 10.7 51.3 73 6.2 43.1 0 0
00:35 1020 30.12 849 25.07 11.1 52 71 6.1 43 0 0
00:40 1020 30.12 849 25.07 11.7 53.1 68 6.2 43.1 0 0
00:45 1020 30.12 849 25.07 12.3 54.1 70 6.9 44.5 0 0
00:50 1020 30.12 849 25.07 12.1 53.9 74 7.6 45.7 0 0
00:55 1020 30.12 849 25.07 12.3 54.2 69 6.9 44.5 0 0
01:00 1020 30.12 849 25.07 13.1 55.5 68 7.4 45.2 0 0
01:05 1020 30.12 849 25.07 13.5 56.2 68 7.7 45.9 0 0
01:10 1020 30.12 849 25.07 13.4 56.2 71 8.3 47 0 0
01:15 1021 30.15 850 25.1 12.9 55.1 76 8.7 47.6 0 0
01:20 1021 30.15 850 25.1 12.8 55 73 8.1 46.6 0 0
01:25 1021 30.15 850 25.1 13.2 55.8 72 8.3 47 0 0
01:30 1021 30.15 850 25.1 13.4 56 74 8.9 48.1 0 0
01:35 1020 30.12 849 25.07 13.1 55.5 78 9.4 48.9 0 0
01:40 1020 30.12 849 25.07 12.6 54.7 79 9 48.3 0 0
01:45 1020 30.12 849 25.07 12.5 54.4 79 9 48.2 0 0
01:50 1020 30.12 849 25.07 12.2 53.9 78 8.4 47.2 0 0
01:55 1020 30.12 849 25.07 12.3 54.2 75 8.1 46.6 0 0
02:00 1020 30.12 849 25.07 12.6 54.8 75 8.3 47 0 0
02:05 1020 30.12 849 25.07 13 55.5 69 7.4 45.4 0 0
02:10 1020 30.12 849 25.07 13.5 56.2 68 7.8 46 0 0
02:15 1020 30.12 849 25.07 13.1 55.5 71 8 46.3 0 0
02:20 1020 30.12 849 25.07 12.8 55 71 7.6 45.7 0 0
02:25 1020 30.12 849 25.07 12.4 54.3 74 7.9 46.2 0 0
02:30 1020 30.12 849 25.07 11.7 53.1 75 7.5 45.5 0 0
02:35 1020 30.12 849 25.07 12.2 54 70 6.9 44.5 0 0
02:40 1020 30.12 849 25.07 12.6 54.6 70 7.3 45.1 0 0
02:45 1019 30.09 849 25.07 12.7 54.8 70 7.4 45.3 0 0
02:50 1019 30.09 849 25.07 12.3 54.2 72 7.5 45.5 0 0
02:55 1019 30.09 849 25.07 12.1 53.8 73 7.4 45.3 0 0
03:00 1019 30.09 849 25.07 12.3 54.1 71 7.2 45 0 0
03:05 1019 30.09 849 25.07 12.4 54.4 71 7.3 45.1 0 0
03:10 1019 30.09 849 25.07 12.4 54.4 70 7.2 44.9 0 0
03:15 1019 30.09 849 25.07 12.6 54.7 69 7 44.6 0 0
03:20 1019 30.09 848 25.04 12.8 55.1 69 7.3 45.1 0 0
03:25 1019 30.09 848 25.04 13.1 55.5 67 7.1 44.7 0 0
03:30 1019 30.09 849 25.07 12.8 55.1 71 7.6 45.8 0 0
03:35 1019 30.09 849 25.07 11.7 53 74 7.3 45.1 0 0
03:40 1019 30.09 849 25.07 11 51.8 76 7 44.7 0 0
03:45 1020 30.12 849 25.07 11.2 52.1 73 6.5 43.7 0 0
03:50 1020 30.12 849 25.07 11.9 53.4 72 7 44.5 0 0
03:55 1020 30.12 849 25.07 11.8 53.2 72 6.9 44.4 0 0
04:00 1020 30.12 849 25.07 10.9 51.5 74 6.5 43.7 0 0
04:05 1019 30.09 849 25.07 9.8 49.7 80 6.5 43.7 0 0
04:10 1019 30.09 849 25.07 9.5 49 81 6.3 43.4 0 0
04:15 1020 30.12 849 25.07 9.2 48.6 81 6.2 43.1 0 0
04:20 1020 30.12 849 25.07 9.4 48.9 79 6 42.8 0 0
04:25 1020 30.12 849 25.07 10.3 50.5 77 6.5 43.7 0 0
04:30 1020 30.12 849 25.07 10.6 51.1 78 6.9 44.5 0 0
04:35 1020 30.12 849 25.07 10.2 50.4 80 7 44.6 0 0
04:40 1020 30.12 849 25.07 9 48.2 84 6.4 43.5 0 0
04:45 1020 30.12 849 25.07 8.1 46.6 84 5.6 42.2 0 0
04:50 1020 30.12 849 25.07 7.8 46.1 85 5.4 41.7 0 0
04:55 1020 30.12 849 25.07 8.3 46.9 84 5.7 42.3 0 0
05:00 1020 30.12 849 25.07 8.2 46.8 84 5.7 42.2 0 0
05:05 1020 30.12 849 25.07 8 46.3 85 5.6 42.2 0 0
05:10 1020 30.12 849 25.07 7.7 45.9 85 5.4 41.7 0 0
05:15 1020 30.12 849 25.07 7.5 45.4 87 5.4 41.7 0 0
05:20 1020 30.12 849 25.07 7 44.6 88 5.1 41.3 0 0
05:25 1020 30.12 849 25.07 6.6 44 90 5 41.1 0 0
05:30 1020 30.12 849 25.07 6.5 43.8 89 4.9 40.8 0 0
05:35 1020 30.12 849 25.07 6.4 43.5 91 5 40.9 0 0
05:40 1020 30.12 849 25.07 6.8 44.3 88 4.9 40.9 0 0
05:45 1020 30.12 849 25.07 6.6 44 89 5 41.1 0 0
05:50 1020 30.12 849 25.07 6.4 43.6 91 5.1 41.1 0 0
05:55 1020 30.12 849 25.07 6.6 43.9 90 5.1 41.1 0 0
06:00 1020 30.12 849 25.07 6.7 44 89 5 40.9 0 0
06:05 1020 30.12 849 25.07 7.2 45 87 5.2 41.4 0 0
06:10 1020 30.12 849 25.07 7.3 45.2 86 5.1 41.2 0 0
06:15 1020 30.12 849 25.07 7.2 44.9 87 5.1 41.1 0 0
06:20 1020 30.12 849 25.07 6.9 44.5 87 4.9 40.8 0 0
06:25 1020 30.12 849 25.07 6.8 44.3 87 4.8 40.7 0 0
06:30 1020 30.12 849 25.07 6.6 43.9 88 4.8 40.7 0 0
06:35 1020 30.12 849 25.07 6.4 43.5 89 4.7 40.4 0 0
06:40 1020 30.12 849 25.07 6.8 44.2 86 4.7 40.4 0 0
06:45 1020 30.12 849 25.07 7.5 45.6 85 5.1 41.3 0 0
06:50 1020 30.12 849 25.07 7.9 46.2 83 5.1 41.2 0 0
06:55 1020 30.12 849 25.07 8.1 46.6 81 5 40.9 0 0
07:00 1020 30.12 849 25.07 7.9 46.3 83 5.3 41.5 0 0
07:05 1020 30.12 849 25.07 7.8 46 83 5.1 41.1 0 0
07:10 1020 30.12 849 25.07 8.1 46.5 82 5.2 41.4 0 0
07:15 1020 30.12 849 25.07 8 46.4 83 5.3 41.6 0 0
07:20 1020 30.12 849 25.07 7.9 46.3 82 5.1 41.2 0 0
07:25 1020 30.12 849 25.07 8 46.4 83 5.2 41.4 0 0
07:30 1020 30.12 849 25.07 7.7 45.9 85 5.3 41.5 0 0
07:35 1020 30.12 849 25.07 7.8 46.1 84 5.3 41.5 0 0
07:40 1020 30.12 849 25.07 8.2 46.8 82 5.3 41.6 0 0
07:45 1020 30.12 849 25.07 8.7 47.7 80 5.6 42 0 0
07:50 1020 30.12 849 25.07 8.7 47.7 81 5.7 42.3 0 0
07:55 1020 30.12 849 25.07 9.1 48.3 80 5.9 42.5 0 0
08:00 1020 30.12 849 25.07 9.3 48.7 82 6.4 43.5 0 0
08:05 1020 30.12 849 25.07 9.5 49.1 82 6.6 43.9 0 0
08:10 1020 30.12 849 25.07 9.9 49.7 80 6.5 43.7 0 0
08:15 1020 30.12 849 25.07 10.5 50.8 76 6.5 43.7 0 0
08:20 1020 30.12 849 25.07 11.2 52.2 77 7.3 45.1 0 0
08:25 1020 30.12 849 25.07 11.7 53 74 7.2 44.9 0 0
08:30 1020 30.12 849 25.07 12.2 54 70 7 44.6 0 0
08:35 1020 30.12 849 25.07 12.9 55.2 70 7.7 45.8 0 0
08:40 1020 30.12 849 25.07 13.3 55.9 69 7.7 45.9 0 0
08:45 1020 30.12 849 25.07 13.5 56.3 68 7.8 46 0 0
08:50 1020 30.12 849 25.07 13.9 57 64 7.3 45.1 0 0
08:55 1020 30.12 849 25.07 14.3 57.8 64 7.7 45.8 0 0
09:00 1020 30.12 849 25.07 14.8 58.6 64 8.2 46.7 0 0
09:05 1020 30.12 849 25.07 15.1 59.1 59 7.1 44.8 0 0
09:10 1020 30.12 849 25.07 15.2 59.3 62 8 46.3 0 0
09:15 1020 30.12 849 25.07 15.4 59.8 60 7.8 46.1 0 0
09:20 1020 30.12 849 25.07 15.7 60.3 59 7.9 46.2 0 0
09:25 1020 30.12 849 25.07 16 60.8 59 8.1 46.6 0 0
09:30 1020 30.12 849 25.07 16.2 61.2 57 7.9 46.2 0 0
09:35 1020 30.12 849 25.07 16.6 61.8 60 8.8 47.9 0 0
09:40 1020 30.12 849 25.07 16.8 62.2 57 8.2 46.8 0 0
09:45 1020 30.12 849 25.07 17 62.6 55 8.1 46.6 0 0
09:50 1020 30.12 849 25.07 17.5 63.5 53 7.8 46 0 0
09:55 1020 30.12 849 25.07 18.1 64.5 56 9.3 48.8 0 0
10:00 1020 30.12 849 25.07 18.1 64.5 57 9.5 49.1 0 0
10:05 1020 30.12 849 25.07 18.4 65.1 54 8.9 48 0 0
10:10 1020 30.12 849 25.07 19 66.1 48 7.9 46.1 0 0
10:15 1020 30.12 849 25.07 19 66.1 48 7.7 45.9 0 0
10:20 1020 30.12 849 25.07 19 66.3 48 8 46.4 0 0
10:25 1020 30.12 849 25.07 19.3 66.8 46 7.5 45.5 0 0
10:30 1020 30.12 849 25.07 19.1 66.4 49 8.3 46.9 0 0
10:35 1020 30.12 849 25.07 19.5 67.1 47 7.9 46.2 0 0
10:40 1020 30.12 849 25.07 19.4 67 48 8.2 46.8 0 0
10:45 1020 30.12 849 25.07 19.4 66.9 53 9.6 49.2 0 0
10:50 1020 30.12 849 25.07 19.3 66.8 52 9.4 48.9 0 0
10:55 1020 30.12 849 25.07 19.4 66.9 51 9.1 48.3 0 0
11:00 1020 30.12 849 25.07 19.7 67.5 48 8.6 47.4 0 0
11:05 1020 30.12 849 25.07 19.6 67.3 50 8.9 48.1 0 0
11:10 1020 30.12 849 25.07 19.8 67.6 51 9.4 49 0 0
11:15 1020 30.12 849 25.07 19.9 67.8 52 9.9 49.8 0 0
11:20 1020 30.12 849 25.07 19.8 67.6 52 9.9 49.8 0 0
11:25 1019 30.09 849 25.07 19.9 67.7 51 9.5 49.1 0 0
11:30 1019 30.09 849 25.07 20.4 68.8 51 10 50 0 0
11:35 1019 30.09 849 25.07 20.9 69.7 46 9.2 48.5 0 0
11:40 1019 30.09 849 25.07 21.2 70.2 48 9.9 49.9 0 0
11:45 1019 30.09 849 25.07 20.8 69.4 51 10.4 50.6 0 0
11:50 1019 30.09 849 25.07 21 69.8 47 9.4 48.9 0 0
11:55 1019 30.09 849 25.07 21.4 70.5 46 9.3 48.8 0 0
12:00 1019 30.09 848 25.04 21.6 70.9 47 9.9 49.9 0 0
12:05 1019 30.09 848 25.04 21.5 70.8 51 11.1 52 0 0
12:10 1019 30.09 848 25.04 21.5 70.8 45 9.3 48.8 0 0
12:15 1019 30.09 848 25.04 21.7 71.1 46 9.8 49.6 0 0
12:20 1019 30.09 848 25.04 21.9 71.4 50 11.1 52 0 0
12:25 1019 30.09 848 25.04 21.8 71.2 49 10.7 51.2 0 0
12:30 1019 30.09 848 25.04 21.8 71.3 50 11.1 51.9 0 0
12:35 1019 30.09 848 25.04 22 71.6 48 10.6 51.1 0 0
12:40 1019 30.09 848 25.04 22.4 72.4 45 10.1 50.3 0 0
12:45 1019 30.09 848 25.04 22.5 72.5 41 8.8 47.9 0 0
12:50 1019 30.09 848 25.04 22.6 72.8 39 8 46.4 0 0
12:55 1019 30.09 848 25.04 22.7 72.9 42 9.4 48.9 0 0
13:00 1019 30.09 848 25.04 22.9 73.2 40 8.7 47.6 0 0
13:05 1019 30.09 848 25.04 23.2 73.8 37 8.1 46.6 0 0
13:10 1018 30.06 848 25.04 23.5 74.4 36 7.9 46.2 0 0
13:15 1018 30.06 848 25.04 23.7 74.7 41 10 50 0 0
13:20 1018 30.06 848 25.04 23.6 74.5 40 9.4 48.9 0 0
13:25 1018 30.06 848 25.04 24 75.3 32 6.4 43.6 0 0
13:30 1018 30.06 847 25.01 24.7 76.5 37 9.4 48.9 0 0
13:35 1018 30.06 847 25.01 25 77 35 8.6 47.5 0 0
13:40 1018 30.06 847 25.01 24.6 76.2 30 6 42.7 0 0
13:45 1018 30.06 847 25.01 24.8 76.6 31 6.9 44.4 0 0
13:50 1018 30.06 847 25.01 24.9 76.9 33 8 46.3 0 0
13:55 1018 30.06 847 25.01 24.9 76.9 27 4.8 40.7 0 0
14:00 1018 30.06 847 25.01 25.1 77.1 30 6.8 44.2 0 0
14:05 1018 30.06 847 25.01 25.1 77.2 28 5.3 41.6 0 0
14:10 1018 30.06 847 25.01 24.9 76.9 27 5 41 0 0
14:15 1018 30.06 847 25.01 24.8 76.7 32 7.3 45.2 0 0
14:20 1018 30.06 847 25.01 25 77 33 7.8 46 0 0
14:25 1018 30.06 847 25.01 25.2 77.3 27 5.1 41.2 0 0
14:30 1018 30.06 847 25.01 25.7 78.2 24 3.7 38.6 0 0
14:35 1018 30.06 847 25.01 26 78.7 28 6.5 43.7 0 0
14:40 1018 30.06 847 25.01 26.3 79.4 25 5.3 41.5 0 0
14:45 1018 30.06 847 25.01 26.6 79.8 28 6.7 44.1 0 0
14:50 1018 30.06 847 25.01 26.3 79.4 25 5.2 41.4 0 0
14:55 1018 30.06 847 25.01 26.2 79.2 29 7.1 44.8 0 0
15:00 1017 30.03 847 25.01 25.8 78.4 30 6.9 44.4 0 0
15:05 1017 30.03 847 25.01 25.5 77.9 27 5.3 41.5 0 0
15:10 1017 30.03 847 25.01 25.3 77.5 38 10 50.1 0 0
15:15 1017 30.03 847 25.01 25.3 77.6 25 4.4 40 0 0
15:20 1018 30.06 847 25.01 25.4 77.7 32 7.9 46.3 0 0
15:25 1018 30.06 847 25.01 25.2 77.4 42 11.7 53 0 0
15:30 1017 30.03 847 25.01 25.2 77.3 33 7.8 46 0 0
15:35 1017 30.03 847 25.01 25.1 77.2 37 9.8 49.6 0 0
15:40 1017 30.03 847 25.01 25 76.9 40 10.5 50.9 0 0
15:45 1017 30.03 847 25.01 24.7 76.5 35 8.3 47 0 0
15:50 1017 30.03 847 25.01 24.7 76.4 44 11.9 53.4 0 0
15:55 1017 30.03 847 25.01 24.7 76.4 46 12.4 54.4 0 0
16:00 1017 30.03 847 25.01 24.6 76.3 41 10.7 51.3 0 0
16:05 1017 30.03 847 25.01 24.6 76.3 47 12.8 55.1 0 0
16:10 1017 30.03 847 25.01 24.2 75.5 47 12.2 53.9 0 0
16:15 1017 30.03 847 25.01 24 75.1 45 11.4 52.5 0 0
16:20 1017 30.03 847 25.01 24.1 75.3 50 13.1 55.5 0 0
16:25 1017 30.03 847 25.01 24.1 75.4 48 12.7 54.8 0 0
16:30 1017 30.03 847 25.01 23.9 75 52 13.6 56.4 0 0
16:35 1017 30.03 847 25.01 23.7 74.6 53 13.8 56.8 0 0
16:40 1017 30.03 847 25.01 23.7 74.6 50 12.7 54.8 0 0
16:45 1017 30.03 847 25.01 23.7 74.6 54 13.9 57 0 0
16:50 1017 30.03 847 25.01 23.5 74.3 57 14.6 58.4 0 0
16:55 1018 30.06 847 25.01 23.3 73.9 52 12.9 55.2 0 0
17:00 1018 30.06 847 25.01 23.1 73.7 51 12.7 54.9 0 0
17:05 1018 30.06 847 25.01 22.9 73.1 50 12 53.5 0 0
17:10 1018 30.06 847 25.01 22.7 72.8 52 12.5 54.6 0 0
17:15 1018 30.06 847 25.01 22.4 72.2 52 12.1 53.8 0 0
17:20 1018 30.06 847 25.01 22.1 71.8 58 13.6 56.5 0 0
17:25 1018 30.06 847 25.01 21.5 70.7 53 11.7 53.1 0 0
17:30 1018 30.06 847 25.01 21.6 70.9 40 7.5 45.6 0 0
17:35 1018 30.06 847 25.01 22.1 71.8 47 10.6 51.1 0 0
17:40 1018 30.06 847 25.01 22.2 71.9 48 10.9 51.6 0 0
17:45 1018 30.06 847 25.01 21.9 71.4 49 10.8 51.4 0 0
17:50 1018 30.06 847 25.01 21.8 71.3 48 10.4 50.7 0 0
17:55 1018 30.06 847 25.01 21.9 71.4 45 9.7 49.5 0 0
18:00 1018 30.06 847 25.01 21.9 71.5 49 11 51.7 0 0
18:05 1018 30.06 847 25.01 21.4 70.6 51 11 51.8 0 0
18:10 1018 30.06 847 25.01 21 69.8 53 11.3 52.3 0 0
18:15 1018 30.06 847 25.01 20.7 69.2 50 9.9 49.8 0 0
18:20 1018 30.06 847 25.01 20.4 68.7 56 11.5 52.6 0 0
18:25 1018 30.06 847 25.01 19.9 67.9 48 8.7 47.7 0 0
18:30 1018 30.06 847 25.01 22.1 71.7 26 1.7 35 0 0
18:35 1018 30.06 847 25.01 23.4 74.1 32 6.1 43 0 0
18:40 1018 30.06 847 25.01 22.5 72.5 30 4.4 39.9 0 0
18:45 1018 30.06 847 25.01 22.5 72.4 39 7.9 46.1 0 0
18:50 1018 30.06 847 25.01 21.7 71 41 8 46.3 0 0
18:55 1018 30.06 847 25.01 21.4 70.6 40 7.5 45.5 0 0
19:00 1018 30.06 847 25.01 21.5 70.7 40 7.4 45.2 0 0
19:05 1018 30.06 847 25.01 21.6 70.9 41 8 46.4 0 0
19:10 1018 30.06 847 25.01 21.4 70.5 42 8 46.3 0 0
19:15 1017 30.03 847 25.01 21.2 70.1 51 10.7 51.3 0 0
19:20 1018 30.06 847 25.01 19.8 67.6 46 8.1 46.6 0 0
19:25 1018 30.06 847 25.01 20.2 68.3 39 6 42.8 0 0
19:30 1018 30.06 847 25.01 21.4 70.4 36 5.7 42.3 0 0
19:35 1018 30.06 847 25.01 22 71.6 33 5.1 41.2 0 0
19:40 1017 30.03 847 25.01 22.2 72 37 7.2 44.9 0 0
19:45 1017 30.03 847 25.01 20.3 68.6 51 10 50.1 0 0
19:50 1017 30.03 847 25.01 17.6 63.8 56 8.9 48 0 0
19:55 1017 30.03 847 25.01 16.7 62 62 9.4 48.9 0 0
20:00 1017 30.03 847 25.01 15.7 60.3 65 9.3 48.7 0 0
20:05 1017 30.03 847 25.01 15.4 59.8 64 8.7 47.6 0 0
20:10 1017 30.03 847 25.01 15.3 59.5 62 8.1 46.6 0 0
20:15 1017 30.03 847 25.01 15.4 59.8 60 7.9 46.2 0 0
20:20 1017 30.03 847 25.01 15.4 59.7 62 8.1 46.6 0 0
20:25 1017 30.03 847 25.01 15.4 59.7 62 8.1 46.6 0 0
20:30 1017 30.03 847 25.01 14.9 58.7 65 8.4 47 0 0
20:35 1017 30.03 847 25.01 14.4 58 65 8 46.4 0 0
20:40 1017 30.03 847 25.01 14.4 57.9 64 7.7 45.9 0 0
20:45 1017 30.03 847 25.01 14.5 58.2 64 7.9 46.1 0 0
20:50 1017 30.03 847 25.01 14.4 57.9 63 7.6 45.7 0 0
20:55 1017 30.03 847 25.01 14.4 57.9 64 7.8 46 0 0
21:00 1017 30.03 847 25.01 14.3 57.8 62 7.3 45.1 0 0
21:05 1018 30.06 847 25.01 14.5 58 64 7.9 46.2 0 0
21:10 1017 30.03 847 25.01 13.7 56.6 67 7.7 45.9 0 0
21:15 1017 30.03 847 25.01 13.3 56 65 6.9 44.5 0 0
21:20 1017 30.03 847 25.01 13.6 56.6 63 6.8 44.2 0 0
21:25 1017 30.03 847 25.01 13.9 57 61 6.7 44 0 0
21:30 1017 30.03 846 24.98 13.9 57 62 6.9 44.4 0 0
21:35 1017 30.03 846 24.98 13.8 56.9 59 6.1 43 0 0
21:40 1017 30.03 846 24.98 14.8 58.6 55 6 42.9 0 0
21:45 1017 30.03 846 24.98 15.3 59.6 55 6.3 43.4 0 0
21:50 1017 30.03 846 24.98 15.4 59.7 55 6.4 43.6 0 0
21:55 1017 30.03 846 24.98 14.7 58.4 57 6.3 43.4 0 0
22:00 1017 30.03 846 24.98 14.5 58.2 54 5.4 41.8 0 0
22:05 1017 30.03 846 24.98 15 59 54 5.8 42.5 0 0
22:10 1017 30.03 846 24.98 15 59.1 53 5.7 42.2 0 0
22:15 1017 30.03 846 24.98 15.3 59.6 50 5.1 41.2 0 0
22:20 1017 30.03 846 24.98 15.6 60 52 5.9 42.6 0 0
22:25 1017 30.03 846 24.98 15 59 54 5.8 42.4 0 0
22:30 1017 30.03 846 24.98 14.9 58.8 51 5 40.9 0 0
22:35 1017 30.03 846 24.98 15.5 60 49 5.1 41.2 0 0
22:40 1017 30.03 846 24.98 15.8 60.4 48 5 41 0 0
22:45 1017 30.03 846 24.98 16.4 61.4 48 5.3 41.6 0 0
22:50 1017 30.03 846 24.98 16.3 61.3 48 5.4 41.7 0 0
22:55 1017 30.03 846 24.98 16 60.7 49 5.4 41.7 0 0
23:00 1017 30.03 846 24.98 15.8 60.5 49 5.3 41.5 0 0
23:05 1017 30.03 846 24.98 16.1 61.1 47 4.8 40.6 0 0
23:10 1017 30.03 846 24.98 16.6 61.9 47 5.4 41.8 0 0
23:15 1017 30.03 846 24.98 16.3 61.4 49 5.6 42.1 0 0
23:20 1017 30.03 846 24.98 15.7 60.3 50 5.4 41.8 0 0
23:25 1017 30.03 846 24.98 15.5 59.8 50 5.3 41.5 0 0
23:30 1017 30.03 846 24.98 15.7 60.2 48 4.9 40.7 0 0
23:35 1017 30.03 846 24.98 15.9 60.7 48 5 41 0 0
23:40 1017 30.03 846 24.98 15.5 59.9 51 5.6 42 0 0
23:45 1016 30 846 24.98 14.8 58.6 53 5.2 41.4 0 0
23:50 1016 30 846 24.98 14 57.3 57 5.7 42.2 0 0
23:55 1016 30 846 24.98 13.6 56.4 55 4.8 40.7 0 0
24:00 1016 30 846 24.98 14 57.2 55 5.1 41.2 0 0